Aérodrome :
LOGIN :

S'inscrire | Disclaimer

   EN    FR    IT 

 










Légende :    VFR   VFR Marginal   IFR   IFR Intensif   IFR Très Intensif
Visi : 
Plafond : 
>= 8 km
>= 3000ft
5 à 8 km
1000 à 3000 ft
1500m à 5 km
500 à 1000 ft
800 à 1500m
200 à 500 ft
< 800m
< 200 ft
Symboles :   Orages  Brouillard  Fortes neiges  Fortes précipitations  Vent > 20 kt
SIGMETs :   Divers  Orages  Givrage  Turbulence  Onde Orograph.  Cendres Volcan.







- Altitude de l'aérodrome : 17 ft
- Code IATA : MPL
- Voir les cartes d'approche


LFMT - Montpellier Méditerranée

DERNIER METAR :
  • 200130Z AUTO VRB03KT CAVOK 05/02 Q1021 NOSIG

METARs EXPIRÉS :
  • 200100Z AUTO 24003KT CAVOK 06/02 Q1021 NOSIG
  • 200030Z AUTO 23001KT CAVOK 06/01 Q1021 NOSIG
  • 200000Z AUTO 30003KT CAVOK 08/03 Q1021 NOSIG
  • 192330Z AUTO 32004KT CAVOK 08/02 Q1022 NOSIG
  • 192300Z AUTO 32006KT CAVOK 08/03 Q1022 NOSIG

TAF TAF LFMT
Valide du 19 à 21h jusqu'au 20 à 21h UTC


192000Z 1921/2021 VRB05KT CAVOK
ATIS : +33 4 67 13 11 70
Pas de NOTAMs connus pour ce terrain.
1 SIGMET publié pour la FIR Marseille (LFMM) :
 
Turbulence forte
LFMM SIGMET 3 VALID 192200/200200 LFPW
LFMM MARSEILLE FIR/UIR SEV TURB FCST WI N4130 E00530 - N4415 E00330 - N4500 E00415 - N4130 E00645 SFC/FL060 STNR WKN=



MET'MAP, la Météo Aéronautique d'un coup d'oeil ! - Copyright ORBIFLY Décembre 2007 - Disclaimer

ORBIFLY MET'MAP TEAM :

Programmation & Développement : Alexandra Zaïnal
Conception & Développement : Baudouin d'Aumeries
Co-Programmation & Développement : Marc-Olivier Méhu
Soutien technique & logistique : Manuel Goepfert

Contact : metmap@orbifly.com




SOURCES & CREDITS :

   NOAA